2018-02-23 - 05:54:00

SR: 0628 - SS: 1657

RWY: 07


OBSERVATION: n/a

RVR Mean 1 min: (Runway Visual Range)
A: P2000 - B: P2000 - C: P2000
RVR Mean 10 min:
A: P2000 - B: P2000 - C: P2000
WARNING: n/a
W25: 350-100(050-05kt) 01kt-08kt
W07: 040-070(050-08kt) 05kt-10kt
OTHER: n/a

QFE: (tats�chlicher Luftdruck) 1018.2 hPa = 30.06 inHg
QNH:(Luftdruck auf Meeresh�he) 1024.1 hPa = 30.23 inHg
Temperatur: -1.8 �C
Dew point(Taupunkt): -3.7 �C

METAR:  00739 SADL31 EDDG 230550 METAR EDDG 230550Z 05004KT 350V110 9999 FEW045 M02/M04 Q1024 NOSIG= 
METAR (aus weather.noaa.gov):
2018/02/23 05:50 EDDG 230550Z 05004KT 350V110 9999 FEW045 M02/M04 Q1024 NOSIG

TAF (aus weather.noaa.gov):
2018/02/23 06:27 TAF EDDG 230500Z 2306/2406 06007KT 9999 FEW040 PROB30 TEMPO 2306/2308 4000 BR TEMPO 2311/2317 07012KT